createdAt,value
2023-02-27T00:00:36.441Z,9.18
2023-02-27T00:03:24.349Z,9.52
2023-02-27T00:05:52.370Z,9.73
2023-02-27T00:08:20.012Z,9.57
2023-02-27T00:10:48.079Z,10.25
2023-02-27T00:13:15.740Z,9.27
2023-02-27T00:15:47.101Z,10.43
2023-02-27T00:18:14.963Z,9.95
2023-02-27T00:20:43.176Z,9.60
2023-02-27T00:23:11.020Z,9.30
2023-02-27T00:25:39.026Z,8.80
2023-02-27T00:28:06.627Z,8.73
2023-02-27T00:30:34.709Z,8.98
2023-02-27T00:33:02.381Z,9.32
2023-02-27T00:35:30.418Z,9.35
2023-02-27T00:37:58.075Z,7.93
2023-02-27T00:40:26.409Z,7.82
2023-02-27T00:42:54.625Z,7.68
2023-02-27T00:45:23.043Z,7.65
2023-02-27T00:47:50.746Z,7.63
2023-02-27T00:50:18.766Z,7.50
2023-02-27T00:52:46.543Z,7.85
2023-02-27T00:55:14.629Z,7.32
2023-02-27T00:57:42.614Z,7.13
2023-02-27T01:00:11.599Z,7.15
2023-02-27T01:02:39.532Z,6.85
2023-02-27T01:05:09.210Z,6.75
2023-02-27T01:07:37.693Z,6.63
2023-02-27T01:10:07.299Z,6.68
2023-02-27T01:12:36.036Z,6.60
2023-02-27T01:15:06.040Z,6.25
2023-02-27T01:17:33.974Z,5.78
2023-02-27T01:20:02.007Z,6.25
2023-02-27T01:22:29.649Z,6.80
2023-02-27T01:24:57.613Z,5.90
2023-02-27T01:27:25.324Z,5.82
2023-02-27T01:29:53.305Z,6.90
2023-02-27T01:32:21.153Z,5.78
2023-02-27T01:34:49.369Z,6.20
2023-02-27T01:37:17.557Z,6.43
2023-02-27T01:39:45.588Z,6.25
2023-02-27T01:42:23.157Z,6.75
2023-02-27T01:45:29.063Z,7.20
2023-02-27T01:48:20.181Z,6.95
2023-02-27T01:50:57.590Z,6.40
2023-02-27T01:53:30.065Z,6.53
2023-02-27T01:56:07.943Z,6.50
2023-02-27T01:58:36.943Z,6.80
2023-02-27T02:01:05.291Z,6.45
2023-02-27T02:03:38.575Z,6.80
2023-02-27T02:06:07.944Z,7.00
2023-02-27T02:08:41.894Z,7.85
2023-02-27T02:11:10.332Z,7.65
2023-02-27T02:13:40.364Z,7.10
2023-02-27T02:16:49.090Z,6.90
2023-02-27T02:19:48.057Z,7.00
2023-02-27T02:22:59.848Z,7.30
2023-02-27T02:25:55.112Z,7.22
2023-02-27T02:28:47.784Z,7.05
2023-02-27T02:31:45.016Z,7.88
2023-02-27T02:34:15.792Z,8.00
2023-02-27T02:37:14.366Z,6.90
2023-02-27T02:40:05.383Z,7.72
2023-02-27T02:42:45.552Z,7.88
2023-02-27T02:45:26.822Z,7.82
2023-02-27T02:48:15.770Z,7.63
2023-02-27T02:50:57.080Z,8.88
2023-02-27T02:53:36.600Z,7.97
2023-02-27T02:56:25.634Z,8.52
2023-02-27T02:59:34.198Z,9.05
2023-02-27T03:02:17.065Z,9.20
2023-02-27T03:04:49.266Z,8.05
2023-02-27T03:07:26.849Z,9.05
2023-02-27T03:10:09.952Z,8.15
2023-02-27T03:12:41.638Z,8.45
2023-02-27T03:18:24.813Z,7.68
2023-02-27T03:20:57.587Z,7.78
2023-02-27T03:23:42.261Z,8.25
2023-02-27T03:26:20.962Z,7.45
2023-02-27T03:29:01.689Z,7.32
2023-02-27T03:31:41.216Z,8.73
2023-02-27T03:34:18.247Z,7.10
2023-02-27T03:36:50.733Z,7.50
2023-02-27T03:39:27.452Z,7.25
2023-02-27T03:42:09.095Z,7.68
2023-02-27T03:45:20.041Z,7.68
2023-02-27T03:47:48.346Z,7.90
2023-02-27T03:50:16.780Z,8.75
2023-02-27T03:52:45.741Z,7.88
2023-02-27T03:55:28.023Z,7.65
2023-02-27T03:57:56.551Z,7.55
2023-02-27T04:00:26.508Z,7.68
2023-02-27T04:02:59.672Z,7.68
2023-02-27T04:05:29.646Z,7.50
2023-02-27T04:08:08.062Z,7.90
2023-02-27T04:10:55.684Z,7.75
2023-02-27T04:13:52.456Z,7.60
2023-02-27T04:16:23.309Z,7.55
2023-02-27T04:19:23.575Z,7.90
2023-02-27T04:22:25.861Z,7.65
2023-02-27T04:25:01.918Z,7.45
2023-02-27T04:27:41.550Z,8.15
2023-02-27T04:30:18.293Z,8.43
2023-02-27T04:33:09.835Z,8.00
2023-02-27T04:36:06.274Z,7.70
2023-02-27T04:38:51.627Z,8.63
2023-02-27T04:41:48.783Z,9.15
2023-02-27T04:44:18.821Z,8.57
2023-02-27T04:46:47.923Z,9.45
2023-02-27T04:49:28.037Z,11.25
2023-02-27T04:52:01.769Z,12.32
2023-02-27T04:54:46.816Z,17.80
2023-02-27T04:57:24.827Z,14.18
2023-02-27T04:59:55.863Z,9.55
2023-02-27T05:02:32.838Z,8.85
2023-02-27T05:05:06.371Z,7.80
2023-02-27T05:10:40.096Z,7.93
2023-02-27T05:13:23.358Z,8.07
2023-02-27T05:16:10.928Z,7.97
2023-02-27T05:18:39.188Z,8.60
2023-02-27T05:21:29.819Z,8.27
2023-02-27T05:24:14.184Z,9.20
2023-02-27T05:27:13.634Z,9.02
2023-02-27T05:29:41.571Z,9.90
2023-02-27T05:32:32.127Z,10.40
2023-02-27T05:35:34.124Z,9.52
2023-02-27T05:38:15.853Z,8.70
2023-02-27T05:41:01.873Z,7.28
2023-02-27T05:43:34.880Z,6.90
2023-02-27T05:46:11.552Z,6.38
2023-02-27T05:48:52.093Z,6.57
2023-02-27T05:51:22.401Z,6.35
2023-02-27T05:53:58.461Z,6.38
2023-02-27T05:56:29.928Z,6.63
2023-02-27T05:59:10.643Z,6.20
2023-02-27T06:01:38.652Z,6.40
2023-02-27T06:04:06.313Z,6.43
2023-02-27T06:06:36.617Z,6.15
2023-02-27T06:09:04.628Z,6.35
2023-02-27T06:11:32.513Z,7.38
2023-02-27T06:14:00.241Z,7.88
2023-02-27T06:16:28.323Z,7.97
2023-02-27T06:18:56.204Z,7.50
2023-02-27T06:21:24.162Z,6.70
2023-02-27T06:23:51.784Z,6.65
2023-02-27T06:26:19.811Z,4.65
2023-02-27T06:28:47.517Z,3.83
2023-02-27T06:31:15.453Z,3.90
2023-02-27T06:33:43.189Z,2.47
2023-02-27T06:36:11.230Z,2.92
2023-02-27T06:38:38.943Z,3.42
2023-02-27T06:41:07.514Z,2.92
2023-02-27T06:43:37.287Z,3.25
2023-02-27T06:46:05.613Z,2.22
2023-02-27T06:48:33.601Z,2.40
2023-02-27T06:51:01.624Z,1.90
2023-02-27T06:53:29.689Z,1.85
2023-02-27T06:55:57.741Z,3.53
2023-02-27T06:58:25.496Z,2.20
2023-02-27T07:00:53.478Z,2.80
2023-02-27T07:03:21.132Z,2.60
2023-02-27T07:05:49.090Z,3.10
2023-02-27T07:08:17.683Z,2.40
2023-02-27T07:10:47.234Z,2.65
2023-02-27T07:13:19.121Z,2.67
2023-02-27T07:15:47.589Z,2.05
2023-02-27T07:18:15.428Z,2.00
2023-02-27T07:20:43.291Z,2.03
2023-02-27T07:23:10.980Z,2.30
2023-02-27T07:25:39.010Z,2.25
2023-02-27T07:28:06.911Z,2.40
2023-02-27T07:30:34.832Z,4.00
2023-02-27T07:33:02.572Z,4.45
2023-02-27T07:35:30.522Z,7.22
2023-02-27T07:37:58.212Z,4.30
2023-02-27T07:40:26.189Z,2.20
2023-02-27T07:42:53.837Z,2.40
2023-02-27T07:45:23.566Z,2.03
2023-02-27T07:47:51.304Z,2.22
2023-02-27T07:50:19.398Z,2.25
2023-02-27T07:52:47.545Z,2.45
2023-02-27T07:55:15.524Z,2.58
2023-02-27T07:57:44.816Z,3.45
2023-02-27T08:00:13.395Z,2.97
2023-02-27T08:02:41.100Z,2.20
2023-02-27T08:05:09.958Z,2.10
2023-02-27T08:07:37.710Z,2.20
2023-02-27T08:10:07.003Z,2.47
2023-02-27T08:12:35.120Z,2.63
2023-02-27T08:15:03.329Z,2.70
2023-02-27T08:17:30.972Z,2.63
2023-02-27T08:19:58.974Z,2.40
2023-02-27T08:22:29.195Z,1.90
2023-02-27T08:24:57.223Z,2.00
2023-02-27T08:27:25.216Z,1.80
2023-02-27T08:29:53.273Z,2.20
2023-02-27T08:32:21.310Z,2.17
2023-02-27T08:34:49.686Z,9.68
2023-02-27T08:37:17.486Z,5.75
2023-02-27T08:39:45.526Z,2.85
2023-02-27T08:42:13.325Z,2.25
2023-02-27T08:44:41.610Z,2.35
2023-02-27T08:47:09.660Z,2.13
2023-02-27T08:49:37.752Z,3.03
2023-02-27T08:52:05.661Z,2.30
2023-02-27T08:54:33.586Z,2.78
2023-02-27T08:57:01.192Z,2.63
2023-02-27T08:59:29.203Z,2.95
2023-02-27T09:01:57.437Z,6.22
2023-02-27T09:04:26.339Z,4.70
2023-02-27T09:06:54.117Z,2.28
2023-02-27T09:09:23.806Z,2.30
2023-02-27T09:11:52.083Z,2.33
2023-02-27T09:14:20.572Z,2.30
2023-02-27T09:16:48.715Z,2.83
2023-02-27T09:19:16.841Z,2.90
2023-02-27T09:21:44.523Z,2.80
2023-02-27T09:24:19.737Z,2.30
2023-02-27T09:26:50.125Z,2.70
2023-02-27T09:29:18.817Z,2.47
2023-02-27T09:31:47.361Z,2.70
2023-02-27T09:34:15.365Z,2.50
2023-02-27T09:36:43.224Z,2.20
2023-02-27T09:39:11.356Z,2.33
2023-02-27T09:41:48.293Z,2.30
2023-02-27T09:44:47.880Z,2.03
2023-02-27T09:47:48.021Z,2.20
2023-02-27T09:50:44.803Z,2.53
2023-02-27T09:53:40.138Z,2.72
2023-02-27T09:56:24.728Z,2.80
2023-02-27T09:58:55.744Z,2.92
2023-02-27T10:01:56.220Z,2.17
2023-02-27T10:04:45.575Z,2.03
2023-02-27T10:07:13.496Z,2.58
2023-02-27T10:09:48.355Z,2.30
2023-02-27T10:12:34.894Z,2.88
2023-02-27T10:15:20.405Z,2.80
2023-02-27T10:18:10.446Z,2.75
2023-02-27T10:20:55.829Z,2.10
2023-02-27T10:23:32.645Z,2.70
2023-02-27T10:26:01.866Z,2.60
2023-02-27T10:28:31.644Z,2.80
2023-02-27T10:31:02.415Z,2.95
2023-02-27T10:33:34.721Z,2.28
2023-02-27T10:36:03.680Z,2.92
2023-02-27T10:38:45.596Z,2.83
2023-02-27T10:41:15.839Z,2.97
2023-02-27T10:43:44.651Z,2.58
2023-02-27T10:46:19.571Z,2.92
2023-02-27T10:48:47.922Z,3.10
2023-02-27T10:51:30.387Z,2.83
2023-02-27T10:54:19.702Z,3.22
2023-02-27T10:56:56.911Z,2.53
2023-02-27T10:59:36.046Z,4.15
2023-02-27T11:02:21.721Z,3.53
2023-02-27T11:04:54.878Z,4.60
2023-02-27T11:07:38.690Z,4.50
2023-02-27T11:13:05.162Z,9.35
2023-02-27T11:15:35.689Z,7.38
2023-02-27T11:18:27.608Z,9.38
2023-02-27T11:21:22.747Z,5.80
2023-02-27T11:23:55.515Z,3.42
2023-02-27T11:26:28.255Z,2.63
2023-02-27T11:29:18.938Z,5.93
2023-02-27T11:32:00.368Z,7.97
2023-02-27T11:34:36.293Z,5.75
2023-02-27T11:37:27.485Z,6.57
2023-02-27T11:40:16.025Z,4.80
2023-02-27T11:43:06.022Z,4.20
2023-02-27T11:49:03.179Z,7.78
2023-02-27T11:52:09.646Z,3.30
2023-02-27T11:54:45.513Z,3.45
2023-02-27T11:57:39.449Z,2.95
2023-02-27T12:00:16.054Z,3.22
2023-02-27T12:03:20.656Z,3.00
2023-02-27T12:05:53.704Z,3.20
2023-02-27T12:08:53.903Z,3.42
2023-02-27T12:11:33.135Z,3.03
2023-02-27T12:14:24.000Z,3.63
2023-02-27T12:16:59.280Z,4.47
2023-02-27T12:19:38.607Z,3.58
2023-02-27T12:22:29.094Z,3.80
2023-02-27T12:25:38.562Z,3.83
2023-02-27T12:28:23.519Z,4.22
2023-02-27T12:31:15.552Z,4.60
2023-02-27T12:33:59.045Z,3.83
2023-02-27T12:36:26.891Z,3.43
2023-02-27T12:38:55.046Z,5.15
2023-02-27T12:41:41.739Z,4.13
2023-02-27T12:44:25.586Z,3.50
2023-02-27T12:47:03.237Z,4.80
2023-02-27T12:49:55.578Z,3.70
2023-02-27T12:52:35.685Z,3.47
2023-02-27T12:55:12.831Z,4.53
2023-02-27T12:57:43.592Z,3.33
2023-02-27T13:00:20.545Z,3.67
2023-02-27T13:03:16.012Z,3.78
2023-02-27T13:05:52.628Z,3.10
2023-02-27T13:08:39.042Z,3.78
2023-02-27T13:11:22.231Z,3.58
2023-02-27T13:13:58.986Z,4.40
2023-02-27T13:16:43.904Z,3.47
2023-02-27T13:19:26.478Z,3.97
2023-02-27T13:21:55.823Z,3.70
2023-02-27T13:24:29.040Z,3.78
2023-02-27T13:27:23.659Z,3.58
2023-02-27T13:30:06.568Z,3.30
2023-02-27T13:32:52.712Z,3.73
2023-02-27T13:35:23.824Z,3.58
2023-02-27T13:37:58.746Z,3.67
2023-02-27T13:40:32.485Z,3.63
2023-02-27T13:43:06.465Z,3.45
2023-02-27T13:45:47.869Z,4.30
2023-02-27T13:48:34.198Z,3.65
2023-02-27T13:51:03.011Z,3.90
2023-02-27T13:53:31.040Z,3.50
2023-02-27T13:56:22.640Z,3.72
2023-02-27T13:58:51.242Z,3.90
2023-02-27T14:01:27.293Z,3.60
2023-02-27T14:04:02.938Z,4.82
2023-02-27T14:06:31.016Z,4.40
2023-02-27T14:09:12.725Z,5.45
2023-02-27T14:12:00.120Z,3.60
2023-02-27T14:14:50.335Z,3.67
2023-02-27T14:17:36.517Z,3.83
2023-02-27T14:20:10.603Z,3.90
2023-02-27T14:25:26.468Z,3.80
2023-02-27T14:27:59.586Z,3.80
2023-02-27T14:30:37.655Z,3.83
2023-02-27T14:33:17.824Z,4.18
2023-02-27T14:35:56.211Z,4.40
2023-02-27T14:38:25.907Z,4.03
2023-02-27T14:41:29.543Z,4.38
2023-02-27T14:43:58.850Z,4.03
2023-02-27T14:46:39.271Z,4.55
2023-02-27T14:49:31.867Z,4.13
2023-02-27T14:52:18.146Z,3.75
2023-02-27T14:54:45.828Z,4.47
2023-02-27T14:57:28.901Z,4.70
2023-02-27T14:59:56.690Z,5.22
2023-02-27T15:02:32.636Z,4.45
2023-02-27T15:05:03.077Z,4.25
2023-02-27T15:07:33.306Z,4.28
2023-02-27T15:10:04.856Z,3.65
2023-02-27T15:12:38.279Z,4.35
2023-02-27T15:15:09.122Z,4.27
2023-02-27T15:17:42.431Z,5.53
2023-02-27T15:20:31.891Z,4.03
2023-02-27T15:23:02.025Z,4.57
2023-02-27T15:25:37.397Z,4.35
2023-02-27T15:28:17.672Z,4.95
2023-02-27T15:30:49.825Z,4.13
2023-02-27T15:33:18.755Z,5.13
2023-02-27T15:35:47.202Z,5.82
2023-02-27T15:38:30.181Z,4.90
2023-02-27T15:40:59.811Z,5.13
2023-02-27T15:43:29.334Z,6.00
2023-02-27T15:45:58.469Z,5.95
2023-02-27T15:48:26.917Z,4.80
2023-02-27T15:50:58.672Z,5.43
2023-02-27T15:53:29.003Z,5.72
2023-02-27T15:56:04.680Z,6.90
2023-02-27T15:58:38.910Z,7.13
2023-02-27T16:01:18.152Z,6.80
2023-02-27T16:03:49.130Z,4.25
2023-02-27T16:06:25.060Z,5.90
2023-02-27T16:09:05.268Z,7.10
2023-02-27T16:11:36.080Z,6.55
2023-02-27T16:14:06.052Z,5.70
2023-02-27T16:16:38.950Z,6.22
2023-02-27T16:19:28.670Z,4.40
2023-02-27T16:22:07.151Z,4.35
2023-02-27T16:24:34.998Z,4.88
2023-02-27T16:27:03.189Z,4.10
2023-02-27T16:29:52.377Z,5.07
2023-02-27T16:32:30.435Z,9.60
2023-02-27T16:35:07.979Z,10.93
2023-02-27T16:37:46.012Z,9.02
2023-02-27T16:40:16.411Z,9.77
2023-02-27T16:42:45.376Z,6.65
2023-02-27T16:45:23.209Z,4.60
2023-02-27T16:47:53.758Z,5.45
2023-02-27T16:50:33.402Z,5.43
2023-02-27T16:53:01.502Z,7.22
2023-02-27T16:55:29.446Z,6.03
2023-02-27T16:57:57.568Z,6.25
2023-02-27T17:00:25.421Z,6.03
2023-02-27T17:02:53.409Z,6.28
2023-02-27T17:05:21.337Z,8.60
2023-02-27T17:07:49.305Z,6.55
2023-02-27T17:10:22.078Z,6.22
2023-02-27T17:12:50.189Z,5.38
2023-02-27T17:15:18.198Z,5.45
2023-02-27T17:17:46.244Z,5.60
2023-02-27T17:20:15.187Z,6.75
2023-02-27T17:22:44.596Z,5.60
2023-02-27T17:25:13.454Z,7.15
2023-02-27T17:27:43.767Z,6.68
2023-02-27T17:30:12.442Z,6.90
2023-02-27T17:32:40.364Z,8.68
2023-02-27T17:35:08.963Z,9.45
2023-02-27T17:37:37.017Z,9.52
2023-02-27T17:40:08.165Z,7.40
2023-02-27T17:42:39.239Z,6.65
2023-02-27T17:45:08.298Z,6.68
2023-02-27T17:47:36.355Z,6.18
2023-02-27T17:50:05.277Z,5.40
2023-02-27T17:52:36.996Z,7.47
2023-02-27T17:55:05.940Z,5.80
2023-02-27T17:57:36.815Z,6.43
2023-02-27T18:00:09.004Z,6.55
2023-02-27T18:02:37.619Z,6.60
2023-02-27T18:05:06.570Z,7.30
2023-02-27T18:07:34.819Z,7.15
2023-02-27T18:10:05.452Z,7.22
2023-02-27T18:12:34.289Z,7.32
2023-02-27T18:15:03.293Z,7.68
2023-02-27T18:17:31.542Z,7.03
2023-02-27T18:19:59.878Z,5.82
2023-02-27T18:22:30.012Z,5.63
2023-02-27T18:24:58.761Z,5.47
2023-02-27T18:27:28.056Z,5.60
2023-02-27T18:29:57.699Z,11.43
2023-02-27T18:32:25.927Z,8.15
2023-02-27T18:34:54.173Z,8.00
2023-02-27T18:37:22.197Z,8.95
2023-02-27T18:39:49.998Z,9.23
2023-02-27T18:42:17.959Z,9.20
2023-02-27T18:44:45.734Z,9.15
2023-02-27T18:47:13.734Z,9.10
2023-02-27T18:49:41.566Z,8.75
2023-02-27T18:52:09.904Z,9.27
2023-02-27T18:54:37.965Z,8.95
2023-02-27T18:57:06.094Z,10.23
2023-02-27T18:59:33.870Z,11.02
2023-02-27T19:02:01.965Z,10.52
2023-02-27T19:04:33.137Z,10.05
2023-02-27T19:07:01.130Z,11.55
2023-02-27T19:09:32.780Z,11.50
2023-02-27T19:12:00.901Z,13.57
2023-02-27T19:14:28.605Z,14.23
2023-02-27T19:17:00.297Z,13.43
2023-02-27T19:19:28.554Z,12.73
2023-02-27T19:21:56.835Z,12.02
2023-02-27T19:24:24.982Z,8.80
2023-02-27T19:26:53.611Z,7.68
2023-02-27T19:29:21.670Z,8.77
2023-02-27T19:31:50.028Z,6.97
2023-02-27T19:34:17.868Z,5.55
2023-02-27T19:36:45.808Z,4.88
2023-02-27T19:39:13.885Z,4.32
2023-02-27T19:41:41.880Z,4.95
2023-02-27T19:44:09.868Z,4.32
2023-02-27T19:46:39.170Z,4.30
2023-02-27T19:49:08.636Z,3.90
2023-02-27T19:51:36.579Z,4.53
2023-02-27T19:54:04.500Z,4.50
2023-02-27T19:56:32.736Z,5.10
2023-02-27T19:59:00.933Z,5.90
2023-02-27T20:01:31.672Z,7.00
2023-02-27T20:04:00.633Z,6.93
2023-02-27T20:06:32.220Z,6.95
2023-02-27T20:09:00.627Z,7.45
2023-02-27T20:11:32.670Z,6.60
2023-02-27T20:14:01.488Z,7.43
2023-02-27T20:16:30.780Z,7.55
2023-02-27T20:18:58.751Z,7.80
2023-02-27T20:21:28.765Z,7.13
2023-02-27T20:23:57.990Z,7.15
2023-02-27T20:26:29.861Z,11.05
2023-02-27T20:29:04.114Z,6.80
2023-02-27T20:34:02.192Z,12.82
2023-02-27T20:36:30.147Z,13.60
2023-02-27T20:38:58.086Z,13.18
2023-02-27T20:41:29.318Z,15.18
2023-02-27T20:43:58.458Z,14.57
2023-02-27T20:46:28.585Z,14.45
2023-02-27T20:49:00.990Z,13.25
2023-02-27T20:51:35.128Z,15.00
2023-02-27T20:54:04.828Z,14.30
2023-02-27T20:56:35.316Z,14.70
2023-02-27T20:59:08.050Z,14.98
2023-02-27T21:01:38.270Z,16.13
2023-02-27T21:04:06.792Z,16.10
2023-02-27T21:06:35.228Z,16.80
2023-02-27T21:09:06.199Z,22.27
2023-02-27T21:11:34.732Z,24.27
2023-02-27T21:14:11.397Z,23.98
2023-02-27T21:16:40.523Z,30.52
2023-02-27T21:19:08.605Z,25.75
2023-02-27T21:21:37.236Z,25.23
2023-02-27T21:24:06.142Z,23.55
2023-02-27T21:26:39.120Z,21.85
2023-02-27T21:29:15.915Z,23.03
2023-02-27T21:31:45.594Z,23.02
2023-02-27T21:34:16.575Z,20.40
2023-02-27T21:36:45.150Z,20.92
2023-02-27T21:39:16.672Z,22.52
2023-02-27T21:41:45.542Z,21.67
2023-02-27T21:44:15.926Z,21.83
2023-02-27T21:46:45.212Z,23.65
2023-02-27T21:49:39.427Z,24.67
2023-02-27T21:52:07.716Z,24.20
2023-02-27T21:54:35.444Z,26.05
2023-02-27T21:57:03.617Z,32.30
2023-02-27T21:59:31.558Z,33.65
2023-02-27T22:01:59.802Z,30.30
2023-02-27T22:04:28.248Z,30.15
2023-02-27T22:06:56.254Z,40.35
2023-02-27T22:09:24.039Z,39.08
2023-02-27T22:11:52.112Z,35.33
2023-02-27T22:14:19.801Z,33.85
2023-02-27T22:16:47.824Z,34.97
2023-02-27T22:19:20.086Z,32.67
2023-02-27T22:21:48.485Z,32.30
2023-02-27T22:24:16.372Z,32.53
2023-02-27T22:26:45.706Z,32.70
2023-02-27T22:29:13.429Z,34.33
2023-02-27T22:31:41.522Z,30.20
2023-02-27T22:34:13.148Z,32.17
2023-02-27T22:36:41.877Z,31.45
2023-02-27T22:39:10.561Z,32.50
2023-02-27T22:41:40.584Z,34.42
2023-02-27T22:44:12.276Z,36.00
2023-02-27T22:46:43.585Z,37.17
2023-02-27T22:49:15.065Z,36.30
2023-02-27T22:51:43.613Z,37.15
2023-02-27T22:54:14.008Z,38.20
2023-02-27T22:56:42.323Z,35.65
2023-02-27T22:59:10.355Z,35.92
2023-02-27T23:01:38.974Z,35.42
2023-02-27T23:04:08.891Z,34.63
2023-02-27T23:06:39.723Z,36.20
2023-02-27T23:09:10.770Z,35.15
2023-02-27T23:11:38.898Z,35.00
2023-02-27T23:14:06.874Z,35.22
2023-02-27T23:16:35.435Z,35.08
2023-02-27T23:19:04.346Z,33.95
2023-02-27T23:21:36.519Z,34.83
2023-02-27T23:24:10.458Z,35.33
2023-02-27T23:26:40.452Z,35.03
2023-02-27T23:29:09.161Z,35.22
2023-02-27T23:31:38.117Z,36.25
2023-02-27T23:34:06.376Z,36.33
2023-02-27T23:36:36.216Z,34.72
2023-02-27T23:39:06.092Z,36.45
2023-02-27T23:41:34.778Z,35.75
2023-02-27T23:44:21.574Z,35.95
2023-02-27T23:46:49.824Z,36.08
2023-02-27T23:49:17.465Z,35.60
2023-02-27T23:51:45.357Z,36.83
2023-02-27T23:54:13.029Z,35.28
2023-02-27T23:56:40.931Z,37.10
2023-02-27T23:59:08.717Z,36.67
